createdAt,value
2023-05-21T00:00:38.452Z,18.20
2023-05-21T00:01:38.460Z,18.26
2023-05-21T00:02:38.539Z,18.26
2023-05-21T00:03:38.553Z,18.27
2023-05-21T00:04:38.456Z,18.26
2023-05-21T00:05:38.804Z,18.20
2023-05-21T00:06:38.530Z,18.25
2023-05-21T00:07:38.496Z,18.20
2023-05-21T00:08:38.462Z,18.15
2023-05-21T00:09:38.463Z,18.08
2023-05-21T00:10:38.462Z,18.14
2023-05-21T00:11:38.463Z,18.10
2023-05-21T00:12:38.456Z,18.08
2023-05-21T00:13:38.461Z,18.14
2023-05-21T00:14:38.476Z,18.14
2023-05-21T00:15:38.481Z,18.17
2023-05-21T00:16:38.514Z,18.15
2023-05-21T00:17:38.481Z,18.15
2023-05-21T00:18:38.461Z,18.17
2023-05-21T00:19:38.464Z,18.12
2023-05-21T00:20:38.467Z,18.20
2023-05-21T00:21:38.460Z,18.20
2023-05-21T00:22:38.465Z,18.12
2023-05-21T00:23:38.558Z,18.11
2023-05-21T00:24:38.468Z,18.11
2023-05-21T00:25:38.470Z,18.17
2023-05-21T00:26:38.461Z,18.17
2023-05-21T00:27:38.471Z,18.11
2023-05-21T00:28:38.471Z,18.14
2023-05-21T00:29:38.471Z,18.14
2023-05-21T00:30:38.467Z,18.17
2023-05-21T00:31:38.502Z,18.12
2023-05-21T00:32:38.493Z,18.17
2023-05-21T00:33:38.470Z,18.17
2023-05-21T00:34:38.463Z,18.10
2023-05-21T00:35:38.470Z,18.15
2023-05-21T00:36:38.463Z,18.14
2023-05-21T00:37:38.465Z,18.15
2023-05-21T00:38:38.465Z,18.15
2023-05-21T00:39:38.486Z,18.14
2023-05-21T00:40:38.473Z,18.05
2023-05-21T00:41:38.467Z,18.17
2023-05-21T00:42:38.469Z,18.17
2023-05-21T00:43:38.470Z,18.08
2023-05-21T00:44:38.471Z,18.15
2023-05-21T00:45:38.828Z,18.14
2023-05-21T00:46:38.468Z,18.02
2023-05-21T00:47:38.481Z,18.11
2023-05-21T00:48:38.469Z,18.10
2023-05-21T00:49:38.482Z,18.00
2023-05-21T00:50:38.470Z,18.10
2023-05-21T00:51:38.484Z,18.10
2023-05-21T00:52:38.475Z,18.00
2023-05-21T00:53:38.479Z,18.05
2023-05-21T00:54:38.485Z,18.12
2023-05-21T00:55:38.691Z,18.05
2023-05-21T00:56:38.471Z,18.00
2023-05-21T00:57:38.482Z,17.96
2023-05-21T00:58:38.469Z,17.99
2023-05-21T00:59:38.476Z,18.12
2023-05-21T01:00:38.480Z,17.92
2023-05-21T01:01:38.532Z,17.96
2023-05-21T01:02:38.612Z,17.96
2023-05-21T01:03:38.746Z,17.95
2023-05-21T01:04:38.476Z,17.96
2023-05-21T01:05:38.484Z,17.95
2023-05-21T01:06:38.474Z,17.90
2023-05-21T01:07:38.480Z,18.03
2023-05-21T01:08:38.481Z,17.99
2023-05-21T01:09:38.486Z,18.02
2023-05-21T01:10:38.477Z,17.96
2023-05-21T01:11:38.496Z,17.96
2023-05-21T01:12:38.486Z,17.93
2023-05-21T01:13:38.479Z,17.92
2023-05-21T01:14:38.479Z,17.81
2023-05-21T01:15:38.496Z,17.82
2023-05-21T01:16:38.538Z,17.89
2023-05-21T01:17:38.532Z,17.84
2023-05-21T01:18:38.671Z,17.92
2023-05-21T01:19:38.503Z,17.87
2023-05-21T01:20:38.476Z,17.87
2023-05-21T01:21:38.482Z,17.89
2023-05-21T01:22:38.479Z,17.87
2023-05-21T01:23:38.476Z,17.86
2023-05-21T01:24:38.478Z,17.82
2023-05-21T01:25:38.659Z,17.79
2023-05-21T01:26:38.484Z,17.86
2023-05-21T01:27:38.503Z,17.81
2023-05-21T01:28:38.481Z,17.86
2023-05-21T01:29:38.483Z,17.82
2023-05-21T01:30:38.478Z,17.77
2023-05-21T01:31:38.481Z,17.79
2023-05-21T01:32:38.585Z,17.79
2023-05-21T01:33:38.594Z,17.78
2023-05-21T01:34:38.482Z,17.84
2023-05-21T01:35:38.714Z,17.71
2023-05-21T01:36:38.476Z,17.79
2023-05-21T01:37:38.495Z,17.70
2023-05-21T01:38:38.489Z,17.64
2023-05-21T01:39:38.489Z,17.79
2023-05-21T01:40:38.500Z,17.79
2023-05-21T01:41:38.495Z,17.74
2023-05-21T01:42:38.482Z,17.82
2023-05-21T01:43:38.547Z,17.68
2023-05-21T01:44:38.486Z,17.75
2023-05-21T01:45:38.488Z,17.70
2023-05-21T01:46:38.568Z,17.74
2023-05-21T01:47:38.560Z,17.72
2023-05-21T01:48:38.483Z,17.71
2023-05-21T01:49:38.488Z,17.72
2023-05-21T01:50:38.496Z,17.64
2023-05-21T01:51:38.492Z,17.74
2023-05-21T01:52:38.488Z,17.63
2023-05-21T01:53:38.493Z,17.58
2023-05-21T01:54:38.491Z,17.74
2023-05-21T01:55:38.755Z,17.66
2023-05-21T01:56:38.514Z,17.64
2023-05-21T01:57:38.491Z,17.68
2023-05-21T01:58:38.502Z,17.59
2023-05-21T01:59:38.520Z,17.63
2023-05-21T02:00:38.485Z,17.58
2023-05-21T02:01:38.513Z,17.58
2023-05-21T02:02:38.546Z,17.63
2023-05-21T02:03:38.698Z,17.64
2023-05-21T02:04:38.493Z,17.63
2023-05-21T02:05:38.774Z,17.66
2023-05-21T02:06:38.490Z,17.66
2023-05-21T02:07:38.495Z,17.62
2023-05-21T02:08:38.499Z,17.56
2023-05-21T02:09:38.496Z,17.63
2023-05-21T02:10:38.488Z,17.55
2023-05-21T02:11:38.499Z,17.56
2023-05-21T02:12:38.489Z,17.56
2023-05-21T02:13:38.499Z,17.59
2023-05-21T02:14:38.494Z,17.63
2023-05-21T02:15:38.629Z,17.51
2023-05-21T02:16:38.720Z,17.52
2023-05-21T02:17:38.540Z,17.54
2023-05-21T02:18:38.494Z,17.58
2023-05-21T02:19:38.497Z,17.56
2023-05-21T02:20:38.493Z,17.56
2023-05-21T02:21:38.496Z,17.58
2023-05-21T02:22:38.494Z,17.55
2023-05-21T02:23:38.502Z,17.58
2023-05-21T02:24:38.540Z,17.52
2023-05-21T02:25:38.717Z,17.51
2023-05-21T02:26:38.499Z,17.55
2023-05-21T02:27:38.503Z,17.55
2023-05-21T02:28:38.510Z,17.44
2023-05-21T02:29:38.508Z,17.46
2023-05-21T02:30:38.503Z,17.46
2023-05-21T02:31:38.523Z,17.54
2023-05-21T02:32:38.564Z,17.44
2023-05-21T02:33:38.530Z,17.48
2023-05-21T02:34:38.502Z,17.43
2023-05-21T02:35:38.644Z,17.43
2023-05-21T02:36:38.507Z,17.34
2023-05-21T02:37:38.509Z,17.36
2023-05-21T02:38:38.512Z,17.33
2023-05-21T02:39:38.504Z,17.40
2023-05-21T02:40:38.510Z,17.37
2023-05-21T02:41:38.525Z,17.31
2023-05-21T02:42:38.507Z,17.37
2023-05-21T02:43:38.505Z,17.36
2023-05-21T02:44:38.508Z,17.36
2023-05-21T02:45:38.777Z,17.38
2023-05-21T02:46:38.503Z,17.38
2023-05-21T02:47:38.699Z,17.31
2023-05-21T02:48:38.505Z,17.31
2023-05-21T02:49:38.504Z,17.34
2023-05-21T02:50:38.502Z,17.34
2023-05-21T02:51:38.508Z,17.33
2023-05-21T02:52:38.501Z,17.33
2023-05-21T02:53:38.509Z,17.16
2023-05-21T02:54:38.510Z,17.16
2023-05-21T02:55:38.698Z,17.30
2023-05-21T02:56:38.501Z,17.19
2023-05-21T02:57:38.509Z,17.21
2023-05-21T02:58:38.502Z,17.34
2023-05-21T02:59:38.504Z,17.19
2023-05-21T03:00:38.500Z,17.38
2023-05-21T03:01:38.520Z,17.31
2023-05-21T03:02:38.564Z,17.36
2023-05-21T03:03:38.612Z,17.43
2023-05-21T03:04:38.503Z,17.40
2023-05-21T03:05:38.757Z,17.44
2023-05-21T03:06:38.509Z,17.33
2023-05-21T03:07:38.505Z,17.38
2023-05-21T03:08:38.507Z,17.44
2023-05-21T03:09:38.525Z,17.52
2023-05-21T03:10:38.502Z,17.48
2023-05-21T03:11:38.504Z,17.46
2023-05-21T03:12:38.500Z,17.52
2023-05-21T03:13:38.615Z,17.46
2023-05-21T03:14:38.509Z,17.48
2023-05-21T03:15:38.637Z,17.59
2023-05-21T03:16:38.528Z,17.55
2023-05-21T03:17:38.554Z,17.52
2023-05-21T03:18:38.504Z,17.51
2023-05-21T03:19:38.525Z,17.44
2023-05-21T03:20:38.504Z,17.55
2023-05-21T03:21:38.509Z,17.54
2023-05-21T03:22:38.509Z,17.54
2023-05-21T03:23:38.503Z,17.49
2023-05-21T03:24:38.511Z,17.58
2023-05-21T03:25:38.503Z,17.56
2023-05-21T03:26:38.513Z,17.55
2023-05-21T03:27:38.509Z,17.62
2023-05-21T03:28:38.505Z,17.68
2023-05-21T03:29:38.504Z,17.52
2023-05-21T03:30:38.515Z,17.68
2023-05-21T03:31:38.683Z,17.59
2023-05-21T03:32:38.516Z,17.71
2023-05-21T03:33:38.511Z,17.72
2023-05-21T03:34:38.513Z,17.63
2023-05-21T03:35:38.644Z,17.62
2023-05-21T03:36:38.511Z,17.59
2023-05-21T03:37:38.502Z,17.71
2023-05-21T03:38:38.507Z,17.70
2023-05-21T03:39:38.510Z,17.62
2023-05-21T03:40:38.515Z,17.71
2023-05-21T03:41:38.513Z,17.66
2023-05-21T03:42:38.515Z,17.75
2023-05-21T03:43:38.510Z,17.78
2023-05-21T03:44:38.528Z,17.78
2023-05-21T03:45:39.425Z,17.79
2023-05-21T03:46:38.532Z,17.71
2023-05-21T03:47:38.575Z,17.81
2023-05-21T03:48:38.510Z,17.79
2023-05-21T03:49:38.510Z,17.81
2023-05-21T03:50:38.512Z,17.77
2023-05-21T03:51:38.535Z,17.84
2023-05-21T03:52:38.508Z,17.72
2023-05-21T03:53:38.514Z,17.79
2023-05-21T03:54:38.516Z,17.81
2023-05-21T03:55:38.565Z,17.74
2023-05-21T03:56:38.512Z,17.86
2023-05-21T03:57:38.509Z,17.84
2023-05-21T03:58:38.525Z,17.99
2023-05-21T03:59:38.520Z,17.99
2023-05-21T04:00:38.514Z,17.92
2023-05-21T04:01:38.512Z,17.89
2023-05-21T04:02:38.602Z,17.95
2023-05-21T04:03:40.737Z,17.96
2023-05-21T04:04:38.583Z,17.97
2023-05-21T04:05:38.625Z,17.99
2023-05-21T04:06:38.513Z,17.97
2023-05-21T04:07:38.531Z,18.08
2023-05-21T04:08:38.517Z,18.08
2023-05-21T04:09:38.508Z,18.11
2023-05-21T04:10:38.514Z,18.08
2023-05-21T04:11:38.516Z,18.14
2023-05-21T04:12:38.532Z,18.21
2023-05-21T04:13:38.526Z,18.25
2023-05-21T04:14:38.521Z,18.20
2023-05-21T04:15:38.857Z,18.29
2023-05-21T04:16:38.589Z,18.25
2023-05-21T04:17:38.592Z,18.26
2023-05-21T04:18:38.522Z,18.29
2023-05-21T04:19:38.544Z,18.21
2023-05-21T04:20:38.525Z,18.35
2023-05-21T04:21:38.524Z,18.41
2023-05-21T04:22:38.519Z,18.48
2023-05-21T04:23:38.538Z,18.42
2023-05-21T04:24:38.515Z,18.44
2023-05-21T04:25:38.514Z,18.51
2023-05-21T04:26:38.532Z,18.55
2023-05-21T04:27:38.537Z,18.51
2023-05-21T04:28:38.512Z,18.60
2023-05-21T04:29:38.519Z,18.62
2023-05-21T04:30:38.519Z,18.57
2023-05-21T04:31:38.670Z,18.63
2023-05-21T04:32:38.586Z,18.70
2023-05-21T04:33:38.515Z,18.78
2023-05-21T04:34:38.525Z,18.81
2023-05-21T04:35:38.585Z,18.85
2023-05-21T04:36:38.522Z,18.85
2023-05-21T04:37:38.519Z,18.94
2023-05-21T04:38:38.523Z,19.06
2023-05-21T04:39:38.536Z,19.06
2023-05-21T04:40:38.518Z,19.02
2023-05-21T04:41:38.517Z,18.92
2023-05-21T04:42:38.520Z,19.08
2023-05-21T04:43:38.545Z,19.11
2023-05-21T04:44:38.517Z,19.13
2023-05-21T04:45:38.726Z,19.26
2023-05-21T04:46:41.009Z,19.25
2023-05-21T04:47:38.561Z,19.47
2023-05-21T04:48:38.522Z,19.40
2023-05-21T04:49:38.547Z,19.39
2023-05-21T04:50:38.523Z,19.46
2023-05-21T04:51:38.520Z,19.55
2023-05-21T04:52:38.527Z,19.47
2023-05-21T04:53:38.527Z,19.62
2023-05-21T04:54:38.520Z,19.65
2023-05-21T04:55:38.632Z,19.69
2023-05-21T04:56:38.520Z,19.73
2023-05-21T04:57:38.517Z,19.80
2023-05-21T04:58:38.529Z,19.69
2023-05-21T04:59:38.522Z,19.71
2023-05-21T05:00:38.552Z,19.71
2023-05-21T05:01:38.699Z,19.91
2023-05-21T05:02:38.554Z,19.94
2023-05-21T05:03:38.548Z,20.08
2023-05-21T05:04:38.529Z,19.96
2023-05-21T05:05:38.765Z,20.08
2023-05-21T05:06:38.537Z,20.06
2023-05-21T05:07:38.524Z,20.16
2023-05-21T05:08:38.543Z,20.17
2023-05-21T05:09:38.520Z,20.14
2023-05-21T05:10:38.528Z,20.11
2023-05-21T05:11:38.565Z,20.17
2023-05-21T05:12:38.544Z,20.28
2023-05-21T05:13:38.530Z,20.39
2023-05-21T05:14:38.530Z,20.47
2023-05-21T05:15:38.729Z,20.41
2023-05-21T05:16:38.562Z,20.64
2023-05-21T05:17:38.546Z,20.58
2023-05-21T05:18:38.541Z,20.67
2023-05-21T05:19:38.534Z,20.70
2023-05-21T05:20:38.543Z,20.77
2023-05-21T05:21:38.526Z,20.82
2023-05-21T05:22:38.536Z,20.87
2023-05-21T05:23:38.540Z,20.92
2023-05-21T05:24:38.532Z,20.99
2023-05-21T05:25:38.774Z,20.98
2023-05-21T05:26:38.535Z,21.12
2023-05-21T05:27:38.792Z,21.13
2023-05-21T05:28:38.536Z,21.19
2023-05-21T05:29:38.536Z,21.27
2023-05-21T05:30:38.597Z,21.25
2023-05-21T05:31:38.537Z,21.29
2023-05-21T05:32:38.543Z,21.32
2023-05-21T05:33:38.537Z,21.31
2023-05-21T05:34:38.538Z,21.21
2023-05-21T05:35:38.677Z,21.21
2023-05-21T05:36:38.541Z,21.29
2023-05-21T05:37:38.533Z,21.24
2023-05-21T05:38:38.552Z,21.40
2023-05-21T05:39:38.540Z,21.28
2023-05-21T05:40:38.536Z,21.49
2023-05-21T05:41:38.544Z,21.38
2023-05-21T05:42:38.541Z,21.49
2023-05-21T05:43:38.564Z,21.50
2023-05-21T05:44:38.541Z,21.54
2023-05-21T05:45:38.992Z,21.54
2023-05-21T05:46:38.651Z,21.54
2023-05-21T05:47:38.568Z,21.49
2023-05-21T05:48:38.575Z,21.62
2023-05-21T05:49:38.547Z,21.74
2023-05-21T05:50:38.543Z,21.68
2023-05-21T05:51:38.544Z,21.82
2023-05-21T05:52:38.552Z,21.75
2023-05-21T05:53:38.552Z,21.86
2023-05-21T05:54:38.553Z,21.96
2023-05-21T05:55:38.810Z,22.03
2023-05-21T05:56:38.552Z,22.03
2023-05-21T05:57:38.555Z,21.90
2023-05-21T05:58:38.553Z,22.06
2023-05-21T05:59:38.573Z,22.05
2023-05-21T06:00:38.554Z,22.18
2023-05-21T06:01:38.580Z,22.09
2023-05-21T06:02:38.608Z,22.17
2023-05-21T06:03:38.789Z,22.22
2023-05-21T06:04:38.554Z,22.37
2023-05-21T06:05:38.889Z,22.33
2023-05-21T06:06:38.561Z,22.40
2023-05-21T06:07:38.564Z,22.40
2023-05-21T06:08:38.557Z,22.52
2023-05-21T06:09:38.554Z,22.57
2023-05-21T06:10:38.571Z,22.57
2023-05-21T06:11:38.558Z,22.47
2023-05-21T06:12:38.564Z,22.61
2023-05-21T06:13:38.570Z,22.62
2023-05-21T06:14:38.573Z,22.57
2023-05-21T06:15:38.947Z,22.58
2023-05-21T06:16:38.705Z,22.52
2023-05-21T06:17:38.588Z,22.58
2023-05-21T06:18:38.574Z,22.82
2023-05-21T06:19:38.564Z,22.80
2023-05-21T06:20:38.594Z,22.91
2023-05-21T06:21:38.576Z,22.94
2023-05-21T06:22:38.570Z,23.05
2023-05-21T06:23:38.569Z,22.97
2023-05-21T06:24:38.576Z,23.09
2023-05-21T06:25:38.878Z,23.10
2023-05-21T06:26:38.577Z,22.97
2023-05-21T06:27:38.584Z,23.05
2023-05-21T06:28:38.580Z,23.12
2023-05-21T06:29:38.571Z,23.10
2023-05-21T06:30:38.588Z,23.13
2023-05-21T06:31:38.606Z,23.17
2023-05-21T06:32:38.617Z,23.22
2023-05-21T06:33:38.649Z,23.16
2023-05-21T06:34:38.583Z,23.22
2023-05-21T06:35:38.679Z,23.27
2023-05-21T06:36:38.597Z,23.32
2023-05-21T06:37:38.586Z,23.33
2023-05-21T06:38:38.592Z,23.40
2023-05-21T06:39:38.593Z,23.43
2023-05-21T06:40:38.594Z,23.53
2023-05-21T06:41:38.597Z,23.50
2023-05-21T06:42:38.598Z,23.75
2023-05-21T06:43:38.595Z,23.66
2023-05-21T06:44:38.602Z,23.83
2023-05-21T06:45:38.993Z,23.94
2023-05-21T06:46:38.612Z,23.95
2023-05-21T06:47:38.736Z,23.97
2023-05-21T06:48:38.614Z,23.91
2023-05-21T06:49:38.614Z,23.91
2023-05-21T06:50:38.610Z,23.91
2023-05-21T06:51:38.604Z,23.95
2023-05-21T06:52:38.621Z,23.87
2023-05-21T06:53:38.605Z,23.97
2023-05-21T06:54:38.614Z,24.13
2023-05-21T06:55:38.769Z,23.97
2023-05-21T06:56:38.614Z,23.98
2023-05-21T06:57:38.632Z,24.00
2023-05-21T06:58:38.628Z,23.87
2023-05-21T06:59:38.626Z,23.94
2023-05-21T07:00:38.623Z,23.98
2023-05-21T07:01:38.682Z,24.13
2023-05-21T07:02:38.746Z,24.10
2023-05-21T07:03:38.681Z,24.06
2023-05-21T07:04:38.628Z,24.25
2023-05-21T07:05:38.858Z,24.21
2023-05-21T07:06:38.632Z,24.27
2023-05-21T07:07:38.628Z,24.31
2023-05-21T07:08:38.638Z,24.27
2023-05-21T07:09:38.628Z,24.25
2023-05-21T07:10:38.645Z,24.31
2023-05-21T07:11:38.636Z,24.34
2023-05-21T07:12:38.644Z,24.34
2023-05-21T07:13:38.635Z,24.27
2023-05-21T07:14:38.645Z,24.18
2023-05-21T07:15:38.920Z,24.03
2023-05-21T07:16:38.692Z,23.94
2023-05-21T07:17:38.678Z,24.05
2023-05-21T07:18:38.661Z,23.88
2023-05-21T07:19:38.682Z,23.94
2023-05-21T07:20:38.647Z,23.88
2023-05-21T07:21:38.661Z,24.02
2023-05-21T07:22:38.650Z,24.00
2023-05-21T07:23:38.676Z,24.12
2023-05-21T07:24:38.656Z,24.12
2023-05-21T07:25:38.774Z,24.12
2023-05-21T07:26:38.662Z,24.24
2023-05-21T07:27:38.663Z,24.32
2023-05-21T07:28:38.664Z,24.27
2023-05-21T07:29:38.667Z,24.28
2023-05-21T07:30:38.660Z,24.34
2023-05-21T07:31:38.694Z,24.32
2023-05-21T07:32:38.689Z,24.46
2023-05-21T07:33:38.674Z,24.60
2023-05-21T07:34:38.671Z,24.83
2023-05-21T07:35:38.890Z,24.88
2023-05-21T07:36:38.667Z,25.02
2023-05-21T07:37:38.697Z,25.25
2023-05-21T07:38:38.683Z,25.38
2023-05-21T07:39:38.683Z,25.55
2023-05-21T07:40:38.684Z,25.73
2023-05-21T07:41:38.691Z,25.85
2023-05-21T07:42:38.685Z,25.98
2023-05-21T07:43:38.690Z,26.10
2023-05-21T07:44:38.688Z,26.47
2023-05-21T07:45:38.856Z,26.77
2023-05-21T07:46:38.790Z,27.18
2023-05-21T07:47:38.722Z,27.39
2023-05-21T07:48:38.719Z,27.84
2023-05-21T07:49:38.705Z,28.27
2023-05-21T07:50:38.711Z,28.67
2023-05-21T07:51:38.739Z,29.08
2023-05-21T07:52:38.730Z,29.06
2023-05-21T07:53:38.709Z,29.34
2023-05-21T07:54:38.714Z,29.67
2023-05-21T07:55:38.872Z,29.58
2023-05-21T07:56:38.724Z,29.82
2023-05-21T07:57:38.730Z,30.04
2023-05-21T07:58:38.724Z,30.35
2023-05-21T07:59:38.751Z,30.70
2023-05-21T08:00:38.738Z,31.06
2023-05-21T08:01:38.734Z,30.88
2023-05-21T08:02:38.842Z,31.20
2023-05-21T08:03:38.911Z,31.65
2023-05-21T08:04:41.100Z,32.06
2023-05-21T08:05:38.889Z,32.29
2023-05-21T08:06:38.753Z,32.40
2023-05-21T08:07:38.795Z,32.67
2023-05-21T08:08:38.760Z,32.51
2023-05-21T08:09:38.823Z,32.75
2023-05-21T08:10:38.781Z,32.69
2023-05-21T08:11:38.797Z,32.75
2023-05-21T08:12:38.785Z,32.79
2023-05-21T08:13:38.797Z,32.94
2023-05-21T08:14:38.802Z,33.15
2023-05-21T08:15:38.989Z,33.35
2023-05-21T08:16:38.875Z,33.26
2023-05-21T08:17:38.848Z,33.35
2023-05-21T08:18:38.835Z,33.47
2023-05-21T08:19:39.119Z,33.37
2023-05-21T08:20:38.850Z,33.26
2023-05-21T08:21:38.862Z,33.06
2023-05-21T08:22:38.872Z,33.21
2023-05-21T08:23:38.904Z,33.19
2023-05-21T08:24:38.889Z,33.56
2023-05-21T08:25:39.102Z,33.60
2023-05-21T08:26:38.911Z,33.66
2023-05-21T08:27:38.930Z,33.69
2023-05-21T08:28:38.935Z,33.82
2023-05-21T08:29:38.948Z,33.66
2023-05-21T08:30:38.962Z,33.44
2023-05-21T08:31:38.989Z,33.71
2023-05-21T08:32:39.065Z,33.56
2023-05-21T08:33:39.010Z,33.57
2023-05-21T08:34:38.994Z,33.38
2023-05-21T08:35:39.275Z,33.91
2023-05-21T08:36:39.040Z,33.94
2023-05-21T08:37:39.039Z,34.25
2023-05-21T08:38:39.056Z,34.00
2023-05-21T08:39:39.099Z,33.84
2023-05-21T08:40:39.100Z,33.84
2023-05-21T08:41:39.093Z,33.88
2023-05-21T08:42:39.103Z,34.10
2023-05-21T08:43:39.126Z,34.12
2023-05-21T08:44:39.139Z,33.98
2023-05-21T08:45:39.537Z,34.21
2023-05-21T08:46:39.162Z,34.08
2023-05-21T08:47:39.206Z,34.21
2023-05-21T08:48:39.194Z,34.10
2023-05-21T08:49:39.234Z,33.86
2023-05-21T08:50:39.221Z,34.02
2023-05-21T08:51:39.233Z,33.73
2023-05-21T08:52:39.245Z,33.76
2023-05-21T08:53:39.258Z,33.72
2023-05-21T08:54:39.293Z,33.51
2023-05-21T08:55:39.308Z,33.26
2023-05-21T08:56:39.303Z,33.31
2023-05-21T08:57:39.336Z,33.38
2023-05-21T08:58:39.373Z,33.50
2023-05-21T08:59:39.353Z,33.63
2023-05-21T09:00:39.355Z,33.50
2023-05-21T09:01:39.466Z,33.54
2023-05-21T09:02:39.440Z,33.41
2023-05-21T09:03:39.534Z,33.15
2023-05-21T09:04:39.447Z,33.03
2023-05-21T09:05:39.439Z,33.42
2023-05-21T09:06:39.459Z,33.73
2023-05-21T09:07:39.479Z,33.82
2023-05-21T09:08:39.486Z,33.88
2023-05-21T09:09:39.505Z,34.10
2023-05-21T09:10:39.524Z,34.09
2023-05-21T09:11:39.562Z,34.24
2023-05-21T09:12:39.550Z,34.32
2023-05-21T09:13:39.570Z,34.31
2023-05-21T09:14:39.580Z,34.47
2023-05-21T09:15:39.640Z,34.77
2023-05-21T09:16:39.658Z,34.87
2023-05-21T09:17:39.661Z,35.02
2023-05-21T09:18:39.650Z,35.37
2023-05-21T09:19:39.748Z,35.23
2023-05-21T09:20:39.679Z,35.29
2023-05-21T09:21:39.699Z,35.48
2023-05-21T09:22:39.718Z,35.59
2023-05-21T09:23:39.736Z,35.82
2023-05-21T09:24:39.768Z,35.81
2023-05-21T09:25:39.961Z,36.16
2023-05-21T09:26:39.783Z,36.19
2023-05-21T09:27:39.842Z,36.13
2023-05-21T09:28:39.823Z,36.51
2023-05-21T09:29:39.840Z,36.41
2023-05-21T09:30:40.011Z,36.20
2023-05-21T09:31:39.935Z,36.15
2023-05-21T09:32:39.960Z,35.94
2023-05-21T09:33:39.904Z,35.97
2023-05-21T09:34:39.926Z,36.05
2023-05-21T09:35:39.942Z,35.74
2023-05-21T09:36:39.955Z,35.44
2023-05-21T09:37:40.006Z,35.29
2023-05-21T09:38:39.989Z,35.10
2023-05-21T09:39:40.023Z,35.21
2023-05-21T09:40:40.034Z,35.21
2023-05-21T09:41:40.046Z,34.91
2023-05-21T09:42:40.066Z,34.97
2023-05-21T09:43:40.110Z,34.78
2023-05-21T09:44:40.088Z,34.70
2023-05-21T09:45:40.114Z,34.73
2023-05-21T09:46:40.170Z,34.89
2023-05-21T09:47:40.226Z,35.04
2023-05-21T09:48:40.160Z,35.25
2023-05-21T09:49:40.188Z,35.29
2023-05-21T09:50:40.196Z,35.66
2023-05-21T09:51:40.223Z,35.78
2023-05-21T09:52:42.110Z,36.07
2023-05-21T09:53:40.247Z,35.78
2023-05-21T09:54:40.262Z,35.56
2023-05-21T09:55:40.284Z,35.43
2023-05-21T09:56:40.299Z,35.21
2023-05-21T09:57:40.314Z,35.31
2023-05-21T09:58:40.334Z,35.19
2023-05-21T09:59:40.373Z,35.29
2023-05-21T10:00:40.374Z,35.11
2023-05-21T10:01:40.421Z,35.22
2023-05-21T10:02:40.429Z,35.22
2023-05-21T10:03:40.412Z,35.40
2023-05-21T10:04:40.471Z,35.65
2023-05-21T10:05:40.468Z,35.89
2023-05-21T10:06:40.461Z,36.20
2023-05-21T10:07:40.478Z,36.23
2023-05-21T10:08:40.500Z,36.56
2023-05-21T10:09:40.514Z,36.39
2023-05-21T10:10:40.532Z,36.85
2023-05-21T10:11:40.545Z,37.06
2023-05-21T10:12:40.560Z,37.50
2023-05-21T10:13:40.599Z,37.72
2023-05-21T10:14:40.596Z,37.51
2023-05-21T10:15:40.647Z,37.81
2023-05-21T10:16:40.691Z,37.76
2023-05-21T10:17:40.677Z,37.27
2023-05-21T10:18:40.670Z,37.29
2023-05-21T10:19:40.698Z,37.55
2023-05-21T10:20:40.699Z,37.56
2023-05-21T10:21:40.726Z,37.96
2023-05-21T10:22:40.751Z,38.15
2023-05-21T10:23:40.758Z,38.25
2023-05-21T10:24:40.789Z,38.25
2023-05-21T10:25:40.806Z,38.25
2023-05-21T10:26:40.827Z,38.23
2023-05-21T10:27:40.836Z,38.56
2023-05-21T10:28:40.854Z,38.40
2023-05-21T10:29:40.871Z,38.38
2023-05-21T10:30:40.884Z,38.71
2023-05-21T10:31:40.965Z,38.86
2023-05-21T10:32:41.023Z,38.40
2023-05-21T10:33:40.956Z,37.81
2023-05-21T10:34:40.965Z,37.86
2023-05-21T10:35:41.008Z,38.15
2023-05-21T10:36:41.000Z,38.41
2023-05-21T10:37:41.021Z,38.52
2023-05-21T10:38:41.057Z,38.40
2023-05-21T10:39:41.068Z,38.16
2023-05-21T10:40:41.086Z,37.86
2023-05-21T10:41:41.103Z,38.00
2023-05-21T10:42:41.119Z,38.16
2023-05-21T10:43:41.136Z,38.54
2023-05-21T10:44:41.150Z,38.53
2023-05-21T10:45:41.248Z,38.72
2023-05-21T10:46:41.194Z,38.32
2023-05-21T10:47:41.289Z,38.11
2023-05-21T10:48:41.233Z,38.16
2023-05-21T10:49:41.254Z,38.63
2023-05-21T10:50:41.277Z,39.01
2023-05-21T10:51:41.308Z,39.41
2023-05-21T10:52:41.314Z,39.57
2023-05-21T10:53:41.335Z,39.55
2023-05-21T10:54:41.355Z,39.11
2023-05-21T10:55:41.385Z,38.57
2023-05-21T10:56:41.391Z,38.81
2023-05-21T10:57:41.416Z,39.03
2023-05-21T10:58:41.429Z,39.26
2023-05-21T10:59:41.467Z,39.33
2023-05-21T11:00:41.468Z,39.40
2023-05-21T11:01:41.701Z,39.43
2023-05-21T11:02:41.565Z,39.48
2023-05-21T11:03:41.660Z,39.70
2023-05-21T11:04:41.549Z,40.06
2023-05-21T11:05:41.576Z,40.34
2023-05-21T11:06:41.590Z,40.51
2023-05-21T11:07:41.609Z,40.72
2023-05-21T11:08:41.631Z,40.43
2023-05-21T11:09:41.651Z,40.34
2023-05-21T11:10:41.687Z,40.20
2023-05-21T11:11:41.693Z,40.41
2023-05-21T11:12:41.710Z,40.27
2023-05-21T11:13:41.731Z,40.16
2023-05-21T11:14:41.759Z,40.32
2023-05-21T11:15:41.779Z,40.39
2023-05-21T11:16:41.831Z,40.32
2023-05-21T11:17:41.837Z,40.64
2023-05-21T11:18:42.038Z,40.34
2023-05-21T11:19:41.972Z,40.16
2023-05-21T11:20:41.863Z,39.75
2023-05-21T11:21:41.889Z,39.22
2023-05-21T11:22:41.901Z,38.68
2023-05-21T11:23:41.929Z,38.53
2023-05-21T11:24:41.952Z,38.15
2023-05-21T11:25:41.965Z,37.74
2023-05-21T11:26:41.980Z,37.39
2023-05-21T11:27:42.008Z,36.87
2023-05-21T11:28:42.021Z,36.41
2023-05-21T11:29:42.041Z,36.15
2023-05-21T11:30:42.287Z,35.92
2023-05-21T11:31:42.156Z,35.85
2023-05-21T11:32:42.135Z,35.60
2023-05-21T11:33:42.108Z,35.45
2023-05-21T11:34:42.131Z,35.45
2023-05-21T11:35:42.165Z,35.44
2023-05-21T11:36:42.159Z,35.55
2023-05-21T11:37:42.172Z,35.44
2023-05-21T11:38:42.190Z,35.43
2023-05-21T11:39:42.204Z,35.36
2023-05-21T11:40:42.221Z,35.19
2023-05-21T11:41:42.255Z,34.89
2023-05-21T11:42:42.251Z,34.87
2023-05-21T11:43:42.267Z,34.84
2023-05-21T11:44:42.293Z,34.84
2023-05-21T11:45:42.295Z,34.66
2023-05-21T11:46:42.384Z,34.77
2023-05-21T11:47:42.368Z,34.87
2023-05-21T11:48:42.345Z,34.81
2023-05-21T11:49:42.357Z,34.77
2023-05-21T11:50:42.378Z,34.84
2023-05-21T11:51:42.417Z,34.78
2023-05-21T11:52:42.403Z,35.03
2023-05-21T11:53:44.233Z,35.06
2023-05-21T11:54:42.428Z,35.11
2023-05-21T11:55:42.443Z,35.36
2023-05-21T11:56:42.467Z,35.44
2023-05-21T11:57:42.469Z,35.29
2023-05-21T11:58:42.484Z,35.52
2023-05-21T11:59:42.493Z,35.21
2023-05-21T12:00:42.511Z,35.34
2023-05-21T12:01:42.520Z,35.37
2023-05-21T12:02:42.632Z,35.56
2023-05-21T12:03:42.681Z,35.78
2023-05-21T12:04:42.582Z,35.89
2023-05-21T12:05:42.657Z,36.28
2023-05-21T12:06:42.600Z,36.73
2023-05-21T12:07:42.660Z,37.20
2023-05-21T12:08:42.627Z,37.63
2023-05-21T12:09:42.633Z,38.04
2023-05-21T12:10:43.873Z,38.35
2023-05-21T12:11:42.657Z,38.66
2023-05-21T12:12:53.827Z,39.04
2023-05-21T12:13:42.686Z,39.01
2023-05-21T12:14:42.713Z,39.57
2023-05-21T12:15:42.709Z,39.73
2023-05-21T12:16:42.767Z,40.03
2023-05-21T12:17:42.807Z,39.96
2023-05-21T12:18:42.757Z,40.07
2023-05-21T12:19:42.775Z,40.18
2023-05-21T12:20:42.781Z,40.31
2023-05-21T12:21:42.796Z,40.77
2023-05-21T12:22:42.822Z,41.14
2023-05-21T12:23:42.854Z,41.33
2023-05-21T12:24:42.835Z,41.62
2023-05-21T12:25:42.844Z,41.55
2023-05-21T12:26:42.876Z,41.89
2023-05-21T12:27:42.874Z,41.94
2023-05-21T12:28:42.892Z,42.08
2023-05-21T12:29:42.904Z,41.45
2023-05-21T12:30:42.913Z,41.07
2023-05-21T12:31:42.980Z,41.23
2023-05-21T12:32:42.990Z,40.91
2023-05-21T12:33:42.977Z,40.42
2023-05-21T12:34:42.979Z,40.42
2023-05-21T12:35:43.000Z,40.54
2023-05-21T12:36:43.060Z,40.22
2023-05-21T12:37:43.012Z,40.32
2023-05-21T12:38:43.026Z,40.64
2023-05-21T12:39:43.066Z,40.51
2023-05-21T12:40:43.056Z,40.70
2023-05-21T12:41:43.082Z,40.91
2023-05-21T12:42:43.085Z,41.13
2023-05-21T12:43:43.090Z,40.92
2023-05-21T12:44:43.108Z,40.95
2023-05-21T12:45:43.198Z,41.21
2023-05-21T12:46:43.208Z,41.11
2023-05-21T12:47:43.158Z,41.11
2023-05-21T12:48:43.163Z,41.21
2023-05-21T12:49:43.174Z,40.79
2023-05-21T12:50:43.196Z,40.92
2023-05-21T12:51:43.193Z,41.13
2023-05-21T12:52:43.279Z,41.20